Time;durP1;ratioP1;P1;durP2;ratioP2;P2;SDS_P1;SDS_P2;PMS_P1;PMS_P2;Temp;Humidity;BMP_temperature;BMP_pressure;BME280_temperature;BME280_humidity;BME280_pressure;Samples;Min_cycle;Max_cycle;Signal;HPM_P1;HPM_P2
2023/06/02 00:01:03;;;;;;;2.58;0.85;;;17.80;47.20;;;;;;5017381;28;20269;-54
2023/06/02 00:03:37;;;;;;;2.20;1.13;;;17.90;47.20;;;;;;5016981;28;20193;-56
2023/06/02 00:06:09;;;;;;;2.08;1.13;;;17.80;47.10;;;;;;5017249;28;20204;-53
2023/06/02 00:08:40;;;;;;;1.23;0.70;;;17.90;47.20;;;;;;5017597;28;20680;-54
2023/06/02 00:11:13;;;;;;;2.50;0.95;;;17.90;47.20;;;;;;5016839;28;20197;-57
2023/06/02 00:13:43;;;;;;;2.13;0.80;;;17.90;47.20;;;;;;5016895;28;20653;-54
2023/06/02 00:16:15;;;;;;;2.08;0.75;;;17.90;47.20;;;;;;5016510;28;20207;-54
2023/06/02 00:18:48;;;;;;;2.33;0.63;;;17.90;47.20;;;;;;5017642;28;20200;-55
2023/06/02 00:21:18;;;;;;;2.28;0.85;;;17.90;47.20;;;;;;5017286;28;20536;-53
2023/06/02 00:23:49;;;;;;;1.80;0.98;;;17.90;47.30;;;;;;5017882;28;20676;-54
2023/06/02 00:26:20;;;;;;;3.38;0.90;;;18.00;47.40;;;;;;5017209;28;20232;-52
2023/06/02 00:28:51;;;;;;;3.53;0.85;;;18.00;47.50;;;;;;5017484;28;20231;-54
2023/06/02 00:31:21;;;;;;;2.80;0.88;;;18.00;47.50;;;;;;5017491;28;20567;-55
2023/06/02 00:33:54;;;;;;;2.22;1.15;;;18.00;47.50;;;;;;5017121;28;20676;-54
2023/06/02 00:36:25;;;;;;;2.90;0.80;;;18.00;47.50;;;;;;5017332;28;20204;-55
2023/06/02 00:38:56;;;;;;;2.10;0.70;;;18.00;47.60;;;;;;5016516;28;20208;-56
2023/06/02 00:41:26;;;;;;;2.33;0.90;;;18.10;47.60;;;;;;5016285;28;20212;-52
2023/06/02 00:43:57;;;;;;;1.88;0.82;;;18.10;47.70;;;;;;5017259;28;20193;-56
2023/06/02 00:46:28;;;;;;;1.73;0.82;;;18.10;47.70;;;;;;5014809;28;20544;-55
2023/06/02 00:49:00;;;;;;;1.58;0.75;;;18.10;47.70;;;;;;5016948;28;20224;-55
2023/06/02 00:51:31;;;;;;;0.88;0.70;;;18.10;47.70;;;;;;5013618;28;20220;-54
2023/06/02 00:54:02;;;;;;;1.75;0.80;;;18.10;47.70;;;;;;5013812;28;20613;-52
2023/06/02 00:56:33;;;;;;;1.65;0.98;;;18.10;47.70;;;;;;5014091;28;20197;-52
2023/06/02 00:59:04;;;;;;;1.27;0.80;;;18.10;47.70;;;;;;5010400;28;20212;-50
2023/06/02 01:01:38;;;;;;;1.52;0.73;;;18.20;47.70;;;;;;5013588;28;20655;-54
2023/06/02 01:04:12;;;;;;;2.28;0.82;;;18.20;47.80;;;;;;5012743;28;20254;-56
2023/06/02 01:06:44;;;;;;;1.50;0.80;;;18.20;48.00;;;;;;5012165;28;20197;-56
2023/06/02 01:09:16;;;;;;;2.15;0.90;;;18.20;49.00;;;;;;5013056;28;20221;-55
2023/06/02 01:11:47;;;;;;;2.50;0.82;;;18.30;48.60;;;;;;5013679;28;20217;-57
2023/06/02 01:14:18;;;;;;;2.13;1.10;;;18.40;48.70;;;;;;5013648;28;20227;-57
2023/06/02 01:16:51;;;;;;;1.85;0.90;;;18.40;48.60;;;;;;5012703;28;20201;-55
2023/06/02 01:19:26;;;;;;;1.83;0.82;;;18.50;48.60;;;;;;5012661;28;20197;-55
2023/06/02 01:22:03;;;;;;;0.88;0.60;;;18.60;48.50;;;;;;5011797;28;20223;-57
2023/06/02 01:24:41;;;;;;;1.88;0.90;;;18.70;48.40;;;;;;5012197;28;20254;-55
2023/06/02 01:27:12;;;;;;;1.48;0.80;;;18.70;48.30;;;;;;5012705;28;20630;-55
2023/06/02 01:29:44;;;;;;;1.95;0.77;;;18.70;48.10;;;;;;5013282;28;20307;-56
2023/06/02 01:32:24;;;;;;;1.67;0.60;;;18.80;48.10;;;;;;5012968;28;20267;-56
2023/06/02 01:35:02;;;;;;;1.42;0.75;;;18.80;48.00;;;;;;5012622;28;20193;-55
2023/06/02 01:37:34;;;;;;;1.13;0.60;;;18.80;47.90;;;;;;5013042;28;20202;-54
2023/06/02 01:40:08;;;;;;;2.30;1.10;;;18.80;47.90;;;;;;5010542;28;20675;-56
2023/06/02 01:42:39;;;;;;;2.45;0.95;;;18.80;47.90;;;;;;5012396;28;20213;-56
2023/06/02 01:45:12;;;;;;;2.00;0.80;;;18.90;48.00;;;;;;4992583;28;20205;-55
2023/06/02 01:47:43;;;;;;;1.63;0.80;;;18.90;48.00;;;;;;4993094;28;20197;-54
2023/06/02 01:50:14;;;;;;;1.23;0.68;;;18.90;47.90;;;;;;4992664;28;20233;-57
2023/06/02 01:52:45;;;;;;;1.23;0.82;;;18.90;47.90;;;;;;4996647;28;20217;-56
2023/06/02 01:55:17;;;;;;;1.48;0.63;;;18.90;47.90;;;;;;4992450;28;20562;-53
2023/06/02 01:57:48;;;;;;;2.50;0.85;;;18.90;47.90;;;;;;4992665;28;20205;-57
2023/06/02 02:00:19;;;;;;;1.20;0.70;;;18.90;47.90;;;;;;4993072;28;20231;-53
2023/06/02 02:02:51;;;;;;;1.27;0.60;;;18.90;47.90;;;;;;4991481;28;20264;-55
2023/06/02 02:05:21;;;;;;;2.60;0.90;;;19.00;47.90;;;;;;4992463;28;20697;-56
2023/06/02 02:07:52;;;;;;;2.50;0.90;;;19.00;48.00;;;;;;4992032;28;20201;-54
2023/06/02 02:10:25;;;;;;;1.38;0.80;;;19.00;48.00;;;;;;4992203;28;20268;-54
2023/06/02 02:12:55;;;;;;;1.13;0.82;;;19.00;48.00;;;;;;4992935;28;20225;-55
2023/06/02 02:15:27;;;;;;;1.40;0.80;;;19.00;47.80;;;;;;4994086;28;20205;-55
2023/06/02 02:17:58;;;;;;;1.70;0.70;;;19.00;47.80;;;;;;5011731;28;20219;-56
2023/06/02 02:20:29;;;;;;;1.38;0.63;;;19.10;47.80;;;;;;5001055;28;20237;-55
2023/06/02 02:23:00;;;;;;;2.03;0.85;;;19.10;47.80;;;;;;5011949;28;20217;-55
2023/06/02 02:25:33;;;;;;;1.80;0.80;;;19.10;47.80;;;;;;4992543;28;20201;-54
2023/06/02 02:28:03;;;;;;;2.25;0.70;;;19.10;47.90;;;;;;4993000;28;20197;-56
2023/06/02 02:30:34;;;;;;;1.08;0.73;;;19.10;47.80;;;;;;5011443;28;20220;-55
2023/06/02 02:33:05;;;;;;;1.00;0.50;;;19.10;47.80;;;;;;5011742;28;20652;-55
2023/06/02 02:35:36;;;;;;;1.33;0.57;;;19.10;47.90;;;;;;5010578;28;20661;-56
2023/06/02 02:38:06;;;;;;;1.45;0.70;;;19.20;47.90;;;;;;5011360;28;20287;-56
2023/06/02 02:40:39;;;;;;;1.67;0.60;;;19.20;47.90;;;;;;5011242;28;20236;-54
2023/06/02 02:43:10;;;;;;;1.23;0.70;;;19.20;47.90;;;;;;5011028;28;20232;-56
2023/06/02 02:45:41;;;;;;;2.00;0.70;;;19.20;47.80;;;;;;5011995;28;20201;-54
2023/06/02 02:48:12;;;;;;;1.63;0.70;;;19.30;47.80;;;;;;5011103;28;20661;-52
2023/06/02 02:50:43;;;;;;;1.00;0.47;;;19.30;47.80;;;;;;5011416;28;20228;-56
2023/06/02 02:53:15;;;;;;;1.17;0.50;;;19.30;47.70;;;;;;5011240;28;20217;-54
2023/06/02 02:55:51;;;;;;;0.90;0.50;;;19.30;47.60;;;;;;5010993;28;20193;-55
2023/06/02 02:58:21;;;;;;;1.40;0.80;;;19.30;47.50;;;;;;5011386;28;20192;-55
2023/06/02 03:00:52;;;;;;;0.73;0.63;;;19.30;47.40;;;;;;5011647;28;20192;-56
2023/06/02 03:03:23;;;;;;;0.55;0.50;;;19.30;47.40;;;;;;5011660;28;20228;-56
2023/06/02 03:05:54;;;;;;;0.47;0.40;;;19.30;47.30;;;;;;5011197;28;20661;-53
2023/06/02 03:08:25;;;;;;;0.82;0.57;;;19.40;47.30;;;;;;5011117;28;20204;-54
2023/06/02 03:10:57;;;;;;;1.00;0.80;;;19.40;47.20;;;;;;5011208;28;20672;-54
2023/06/02 03:13:28;;;;;;;1.00;0.50;;;19.40;47.10;;;;;;5011240;28;20780;-56
2023/06/02 03:15:59;;;;;;;2.03;1.00;;;19.40;47.00;;;;;;5011229;28;20712;-55
2023/06/02 03:18:30;;;;;;;1.30;0.57;;;19.50;46.90;;;;;;5011393;28;20635;-57
2023/06/02 03:21:02;;;;;;;2.10;0.70;;;19.50;46.60;;;;;;5008225;28;20204;-55
2023/06/02 03:23:32;;;;;;;1.85;0.60;;;19.50;46.50;;;;;;5011045;28;20213;-56
2023/06/02 03:26:05;;;;;;;2.08;0.50;;;19.50;46.30;;;;;;5010628;28;20219;-56
2023/06/02 03:28:36;;;;;;;1.77;0.75;;;19.50;46.10;;;;;;5011635;28;20204;-57
2023/06/02 03:31:07;;;;;;;1.00;0.60;;;19.50;46.00;;;;;;5011260;28;20287;-57
2023/06/02 03:33:38;;;;;;;1.10;0.50;;;19.50;46.30;;;;;;5010668;28;20197;-55
2023/06/02 03:36:08;;;;;;;2.08;0.60;;;19.50;46.30;;;;;;5010782;28;20201;-56
2023/06/02 03:38:39;;;;;;;1.00;0.40;;;19.60;46.30;;;;;;5009622;28;20185;-58
2023/06/02 03:41:11;;;;;;;0.65;0.50;;;19.60;46.30;;;;;;5010481;28;20231;-54
2023/06/02 03:43:42;;;;;;;1.08;0.47;;;19.60;46.30;;;;;;5010569;28;20196;-56
2023/06/02 03:46:13;;;;;;;1.13;0.63;;;19.60;46.20;;;;;;5011258;28;20196;-55
2023/06/02 03:48:43;;;;;;;1.45;0.50;;;19.70;46.30;;;;;;5010431;28;20197;-56
2023/06/02 03:51:14;;;;;;;1.38;0.50;;;19.70;46.20;;;;;;5011116;28;20294;-53
2023/06/02 03:53:45;;;;;;;2.65;0.65;;;19.70;46.90;;;;;;5010579;28;20201;-56
2023/06/02 03:56:17;;;;;;;0.40;0.35;;;19.70;46.40;;;;;;5011134;28;20200;-56
2023/06/02 03:58:48;;;;;;;0.82;0.35;;;19.70;46.40;;;;;;5011071;28;20661;-55
2023/06/02 04:01:20;;;;;;;0.50;0.40;;;19.70;46.40;;;;;;5010670;28;20197;-58
2023/06/02 04:03:51;;;;;;;2.35;0.70;;;19.80;46.40;;;;;;5010773;28;20195;-56
2023/06/02 04:06:22;;;;;;;1.85;0.50;;;19.80;46.50;;;;;;5010519;28;20653;-56
2023/06/02 04:08:52;;;;;;;0.75;0.40;;;19.80;46.40;;;;;;5010793;28;20204;-55
2023/06/02 04:11:25;;;;;;;1.20;0.55;;;19.90;46.40;;;;;;5009800;28;20188;-57
2023/06/02 04:13:56;;;;;;;0.93;0.43;;;19.90;46.30;;;;;;5011187;28;20215;-55
2023/06/02 04:16:26;;;;;;;1.33;0.50;;;19.90;46.30;;;;;;5010054;28;20204;-55
2023/06/02 04:18:57;;;;;;;1.02;0.60;;;19.90;46.30;;;;;;5011211;28;20201;-56
2023/06/02 04:21:27;;;;;;;0.80;0.50;;;19.90;46.10;;;;;;5010286;28;20205;-57
2023/06/02 04:23:58;;;;;;;1.58;0.60;;;20.00;46.10;;;;;;5010148;28;20213;-55
2023/06/02 04:26:31;;;;;;;0.60;0.50;;;20.00;46.00;;;;;;5013805;28;20203;-54
2023/06/02 04:29:01;;;;;;;0.60;0.40;;;20.00;46.20;;;;;;5013705;28;20208;-57
2023/06/02 04:31:47;;;;;;;1.30;0.60;;;20.00;46.30;;;;;;5013855;28;20244;-54
2023/06/02 04:34:18;;;;;;;0.98;0.60;;;20.00;46.40;;;;;;5013531;28;20551;-55
2023/06/02 04:36:49;;;;;;;1.08;0.50;;;20.10;46.40;;;;;;5013958;28;20201;-56
2023/06/02 04:39:20;;;;;;;1.52;0.50;;;20.10;46.50;;;;;;5014189;28;20679;-55
2023/06/02 04:41:52;;;;;;;2.15;0.70;;;20.00;46.50;;;;;;5014165;28;20221;-55
2023/06/02 04:44:23;;;;;;;1.70;0.60;;;20.10;46.40;;;;;;5013793;28;20195;-56
2023/06/02 04:46:53;;;;;;;0.70;0.60;;;20.10;46.40;;;;;;5014004;28;20683;-56
2023/06/02 04:49:24;;;;;;;1.40;0.60;;;20.00;46.40;;;;;;5013368;28;20223;-57
2023/06/02 04:51:55;;;;;;;1.40;0.70;;;20.10;46.40;;;;;;5011809;28;20271;-57
2023/06/02 04:54:26;;;;;;;1.02;0.75;;;20.00;46.20;;;;;;5012638;28;20678;-58
2023/06/02 04:56:58;;;;;;;2.40;0.70;;;20.00;46.20;;;;;;5012977;28;20196;-55
2023/06/02 04:59:29;;;;;;;2.05;0.82;;;20.00;46.30;;;;;;5013664;28;20204;-56
2023/06/02 05:01:59;;;;;;;2.25;1.00;;;20.00;46.30;;;;;;5012456;28;20220;-58
2023/06/02 05:04:30;;;;;;;0.77;0.47;;;20.00;46.20;;;;;;5013629;28;20203;-58
2023/06/02 05:07:01;;;;;;;0.90;0.60;;;20.00;46.20;;;;;;5012610;28;20205;-59
2023/06/02 05:09:31;;;;;;;2.28;0.70;;;20.00;46.20;;;;;;5012799;28;20224;-58
2023/06/02 05:12:04;;;;;;;0.75;0.57;;;20.00;46.20;;;;;;5009826;28;20217;-58
2023/06/02 05:14:34;;;;;;;1.90;0.63;;;20.00;46.20;;;;;;5012288;28;20201;-58
2023/06/02 05:17:05;;;;;;;3.42;0.80;;;20.00;46.30;;;;;;5012490;28;20201;-58
2023/06/02 05:19:36;;;;;;;1.13;0.93;;;20.00;46.30;;;;;;5012832;28;20217;-58
2023/06/02 05:22:07;;;;;;;1.45;0.80;;;19.90;46.20;;;;;;5013071;28;20224;-56
2023/06/02 05:24:37;;;;;;;3.08;2.75;;;19.90;46.30;;;;;;5012719;28;20208;-57
2023/06/02 05:27:10;;;;;;;2.78;2.58;;;19.90;46.30;;;;;;5012474;28;20197;-54
2023/06/02 05:29:41;;;;;;;3.17;2.70;;;19.90;46.30;;;;;;5011077;28;20232;-54
2023/06/02 05:32:12;;;;;;;3.28;2.97;;;19.90;46.40;;;;;;5011951;28;20209;-55
2023/06/02 05:34:43;;;;;;;2.83;2.50;;;19.80;46.40;;;;;;5012699;28;20196;-55
2023/06/02 05:37:14;;;;;;;2.78;2.58;;;19.80;46.50;;;;;;5010973;28;20197;-52
2023/06/02 05:39:45;;;;;;;3.00;2.70;;;19.80;46.60;;;;;;5010465;28;20200;-57
2023/06/02 05:42:17;;;;;;;2.88;2.63;;;19.80;46.60;;;;;;5012137;28;20216;-52
2023/06/02 05:44:48;;;;;;;4.15;3.00;;;19.80;46.60;;;;;;5011426;28;20200;-57
2023/06/02 05:47:19;;;;;;;2.72;2.53;;;19.80;46.60;;;;;;5011401;28;20277;-57
2023/06/02 05:49:49;;;;;;;2.90;2.70;;;19.70;46.60;;;;;;5011221;28;20221;-58
2023/06/02 05:52:20;;;;;;;2.72;2.53;;;19.70;46.50;;;;;;5011824;28;20216;-54
2023/06/02 05:54:51;;;;;;;3.92;2.97;;;19.80;46.60;;;;;;5012378;28;20208;-56
2023/06/02 05:57:23;;;;;;;3.92;3.13;;;19.70;46.60;;;;;;5011276;28;20254;-54
2023/06/02 05:59:54;;;;;;;3.15;2.90;;;19.70;46.60;;;;;;5012079;28;20207;-58
2023/06/02 06:02:24;;;;;;;3.13;2.83;;;19.70;46.60;;;;;;5012067;28;20235;-55
2023/06/02 06:04:55;;;;;;;3.05;2.75;;;19.60;46.60;;;;;;5012133;28;20197;-58
2023/06/02 06:07:26;;;;;;;3.67;3.28;;;19.60;46.60;;;;;;5012263;28;20223;-55
2023/06/02 06:09:56;;;;;;;3.40;3.10;;;19.60;46.70;;;;;;5011600;28;20217;-55
2023/06/02 06:12:29;;;;;;;4.07;3.15;;;19.60;46.70;;;;;;5012142;28;20681;-54
2023/06/02 06:14:59;;;;;;;3.47;3.17;;;19.50;46.60;;;;;;5011729;28;20566;-56
2023/06/02 06:17:30;;;;;;;3.53;3.20;;;19.50;46.70;;;;;;5011477;28;20205;-54
2023/06/02 06:20:01;;;;;;;3.85;3.55;;;19.50;46.70;;;;;;5011005;28;20212;-52
2023/06/02 06:22:31;;;;;;;3.90;3.60;;;19.50;46.70;;;;;;5011413;28;20213;-53
2023/06/02 06:25:05;;;;;;;3.70;3.40;;;19.50;46.80;;;;;;5011815;28;20611;-58
2023/06/02 06:27:38;;;;;;;4.85;4.45;;;19.50;47.40;;;;;;5011023;28;20675;-56
2023/06/02 06:30:09;;;;;;;4.60;4.25;;;19.50;46.70;;;;;;5012148;28;20220;-57
2023/06/02 06:32:40;;;;;;;5.00;4.60;;;19.40;46.60;;;;;;5011116;28;20221;-58
2023/06/02 06:35:11;;;;;;;4.75;4.35;;;19.40;46.60;;;;;;5012546;28;20247;-57
2023/06/02 06:37:42;;;;;;;4.95;4.50;;;19.40;46.60;;;;;;5011009;28;20234;-57
2023/06/02 06:40:13;;;;;;;5.03;4.53;;;19.40;46.70;;;;;;5011184;28;20201;-57
2023/06/02 06:42:46;;;;;;;4.80;4.40;;;19.30;46.60;;;;;;5010016;28;20735;-56
2023/06/02 06:45:16;;;;;;;4.38;4.00;;;19.30;46.60;;;;;;5011185;28;20204;-57
2023/06/02 06:47:47;;;;;;;5.22;4.82;;;19.30;46.70;;;;;;5011486;28;20211;-57
2023/06/02 06:50:18;;;;;;;5.38;4.88;;;19.30;46.80;;;;;;5010697;28;20236;-56
2023/06/02 06:52:50;;;;;;;5.57;5.07;;;19.30;46.80;;;;;;5011334;28;20217;-57
2023/06/02 06:55:21;;;;;;;5.30;4.90;;;19.20;46.80;;;;;;5012068;28;20204;-57
2023/06/02 06:57:53;;;;;;;6.50;5.47;;;19.20;46.80;;;;;;5010479;28;20201;-56
2023/06/02 07:00:24;;;;;;;5.90;5.40;;;19.20;46.80;;;;;;5010822;28;20216;-57
2023/06/02 07:02:54;;;;;;;5.75;5.22;;;19.20;46.70;;;;;;5011506;28;20244;-56
2023/06/02 07:05:25;;;;;;;5.75;5.28;;;19.20;46.70;;;;;;5011367;28;20197;-57
2023/06/02 07:07:56;;;;;;;5.97;5.38;;;19.10;46.70;;;;;;5011567;28;20207;-57
2023/06/02 07:10:27;;;;;;;5.68;5.28;;;19.10;46.70;;;;;;5010912;28;20231;-56
2023/06/02 07:12:59;;;;;;;5.63;5.22;;;19.10;46.70;;;;;;5009835;28;20220;-57
2023/06/02 07:15:30;;;;;;;5.30;4.90;;;19.10;46.70;;;;;;5011732;28;20216;-56
2023/06/02 07:18:00;;;;;;;5.95;5.45;;;19.10;46.70;;;;;;5011306;28;20649;-57
2023/06/02 07:20:31;;;;;;;5.85;5.35;;;19.00;46.70;;;;;;5010918;28;20205;-55
2023/06/02 07:23:02;;;;;;;5.15;4.75;;;19.00;46.70;;;;;;5010740;28;20308;-57
2023/06/02 07:25:32;;;;;;;5.18;4.78;;;19.00;46.80;;;;;;5011337;28;20201;-54
2023/06/02 07:28:06;;;;;;;5.18;4.72;;;19.00;46.80;;;;;;5010560;28;20200;-58
2023/06/02 07:30:37;;;;;;;5.18;4.78;;;18.90;46.80;;;;;;5011081;28;20232;-55
2023/06/02 07:33:07;;;;;;;5.30;4.90;;;18.90;46.80;;;;;;5009761;28;20302;-57
2023/06/02 07:35:38;;;;;;;5.70;5.20;;;18.90;46.90;;;;;;5010168;28;20200;-56
2023/06/02 07:38:09;;;;;;;5.40;5.00;;;18.90;46.90;;;;;;5011122;28;20207;-56
2023/06/02 07:40:39;;;;;;;5.70;5.20;;;18.90;46.90;;;;;;5010148;28;20201;-57
2023/06/02 07:43:12;;;;;;;5.40;4.90;;;18.90;46.90;;;;;;5009426;28;20212;-56
2023/06/02 07:45:42;;;;;;;5.68;4.93;;;18.80;46.80;;;;;;5010591;28;20200;-53
2023/06/02 07:48:13;;;;;;;6.05;4.68;;;18.80;46.90;;;;;;5010099;28;20255;-54
2023/06/02 07:50:44;;;;;;;5.05;4.50;;;18.80;47.50;;;;;;5011281;28;20228;-53
2023/06/02 07:53:14;;;;;;;5.20;4.80;;;18.80;47.50;;;;;;5011335;28;20228;-56
2023/06/02 07:55:46;;;;;;;5.50;5.07;;;18.80;46.90;;;;;;5010540;28;20201;-56
2023/06/02 07:58:18;;;;;;;5.22;4.82;;;18.80;47.00;;;;;;5010016;28;20292;-56
2023/06/02 08:00:49;;;;;;;4.65;4.35;;;18.70;46.90;;;;;;5012843;28;20201;-56
2023/06/02 08:03:21;;;;;;;5.30;4.90;;;18.70;46.90;;;;;;5014655;28;20247;-56
2023/06/02 08:05:52;;;;;;;4.78;4.40;;;18.70;47.00;;;;;;5014889;28;20291;-56
2023/06/02 08:08:22;;;;;;;4.60;4.30;;;18.70;47.00;;;;;;5014673;28;20208;-55
2023/06/02 08:10:56;;;;;;;5.05;4.65;;;18.60;47.00;;;;;;5015032;28;20224;-57
2023/06/02 08:13:29;;;;;;;5.35;4.95;;;18.60;47.00;;;;;;5014778;28;20327;-57
2023/06/02 08:16:00;;;;;;;5.03;4.63;;;18.60;47.10;;;;;;5014952;28;20211;-57
2023/06/02 08:18:30;;;;;;;5.13;4.72;;;18.60;47.10;;;;;;5015099;28;20625;-57
2023/06/02 08:21:01;;;;;;;5.30;4.90;;;18.60;47.00;;;;;;5014568;28;20661;-56
2023/06/02 08:23:33;;;;;;;4.75;4.35;;;18.60;47.10;;;;;;5014252;28;20763;-55
2023/06/02 08:26:03;;;;;;;4.68;4.28;;;18.60;47.10;;;;;;5014636;28;20247;-55
2023/06/02 08:28:37;;;;;;;4.55;4.18;;;18.50;47.00;;;;;;5014945;28;20216;-56
2023/06/02 08:31:08;;;;;;;5.03;4.63;;;18.50;47.10;;;;;;5014735;28;20310;-56
2023/06/02 08:33:40;;;;;;;4.90;4.50;;;18.50;47.00;;;;;;5015065;28;20197;-56
2023/06/02 08:36:11;;;;;;;4.18;3.88;;;18.50;47.10;;;;;;5014773;28;20197;-54
2023/06/02 08:38:42;;;;;;;4.40;4.10;;;18.50;47.10;;;;;;5014584;28;20201;-57
2023/06/02 08:41:14;;;;;;;4.40;4.10;;;18.40;47.10;;;;;;5013692;28;20280;-55
2023/06/02 08:43:46;;;;;;;4.53;4.22;;;18.40;47.10;;;;;;5012390;28;20204;-56
2023/06/02 08:46:18;;;;;;;4.50;4.20;;;18.40;47.10;;;;;;5014300;28;20600;-57
2023/06/02 08:48:55;;;;;;;4.75;4.38;;;18.40;47.20;;;;;;5013340;28;20204;-56
2023/06/02 08:51:26;;;;;;;4.53;4.22;;;18.40;47.20;;;;;;5013695;28;20579;-56
2023/06/02 08:53:57;;;;;;;5.13;4.72;;;18.40;47.20;;;;;;5013663;28;20224;-56
2023/06/02 08:56:27;;;;;;;6.07;4.80;;;18.30;47.20;;;;;;5013711;28;20200;-57
2023/06/02 08:59:00;;;;;;;4.38;4.07;;;18.30;47.10;;;;;;5014048;28;20649;-56
2023/06/02 09:01:30;;;;;;;4.68;4.38;;;18.30;47.10;;;;;;5013846;28;20200;-56
2023/06/02 09:04:01;;;;;;;4.00;3.70;;;18.30;47.10;;;;;;5013950;28;20615;-56
2023/06/02 09:06:32;;;;;;;4.20;3.90;;;18.30;47.20;;;;;;5013784;28;20197;-56
2023/06/02 09:09:04;;;;;;;4.53;4.15;;;18.30;47.20;;;;;;5013929;28;20614;-57
2023/06/02 09:11:35;;;;;;;4.50;4.10;;;18.30;47.20;;;;;;5012176;28;20224;-57
2023/06/02 09:14:21;;;;;;;4.30;4.00;;;18.20;47.20;;;;;;5014515;28;20196;-56
2023/06/02 09:16:52;;;;;;;4.40;4.00;;;18.20;47.20;;;;;;5013969;28;20201;-56
2023/06/02 09:19:22;;;;;;;4.13;3.83;;;18.20;47.20;;;;;;5013617;28;20822;-55
2023/06/02 09:21:53;;;;;;;4.35;3.95;;;18.10;47.20;;;;;;5013895;28;20220;-52
2023/06/02 09:24:34;;;;;;;4.38;4.07;;;18.10;47.30;;;;;;5013788;28;20201;-56
2023/06/02 09:27:05;;;;;;;4.05;3.75;;;18.10;47.30;;;;;;5012407;28;20200;-56
2023/06/02 09:29:41;;;;;;;4.43;4.10;;;18.10;47.30;;;;;;5010017;28;20572;-58
2023/06/02 09:32:16;;;;;;;4.60;4.30;;;18.10;47.30;;;;;;5012564;28;20235;-58
2023/06/02 09:34:48;;;;;;;4.00;3.70;;;18.10;47.30;;;;;;5011613;28;20283;-58
2023/06/02 09:37:20;;;;;;;3.80;3.55;;;18.10;47.40;;;;;;5026733;28;20216;-58
2023/06/02 09:39:53;;;;;;;4.07;3.78;;;18.10;47.30;;;;;;5022641;28;20288;-58
2023/06/02 09:42:24;;;;;;;4.50;3.70;;;18.10;47.40;;;;;;5011607;28;20224;-58
2023/06/02 09:45:11;;;;;;;4.03;3.63;;;18.00;47.40;;;;;;5012589;28;20204;-58
2023/06/02 09:47:43;;;;;;;4.38;4.07;;;18.00;47.40;;;;;;4993947;28;20201;-58
2023/06/02 09:50:32;;;;;;;3.90;3.60;;;18.00;47.40;;;;;;5012949;28;20560;-58
2023/06/02 09:53:06;;;;;;;3.88;3.50;;;18.00;47.40;;;;;;5010874;28;20857;-58
2023/06/02 09:55:38;;;;;;;3.88;3.42;;;18.00;47.40;;;;;;5012701;28;20596;-57
2023/06/02 09:58:09;;;;;;;4.00;3.60;;;17.90;47.40;;;;;;5011551;28;20193;-58
2023/06/02 10:00:42;;;;;;;3.88;3.58;;;18.00;47.50;;;;;;5011401;28;20200;-57
2023/06/02 10:03:12;;;;;;;3.70;3.47;;;17.90;47.50;;;;;;5011986;28;20225;-58
2023/06/02 10:05:51;;;;;;;3.33;3.13;;;17.90;47.60;;;;;;5012034;28;20200;-55
2023/06/02 10:08:32;;;;;;;3.50;3.30;;;17.90;47.50;;;;;;5011624;28;20201;-57
2023/06/02 10:11:11;;;;;;;3.35;3.15;;;17.90;47.60;;;;;;5005239;28;20197;-58
2023/06/02 10:14:03;;;;;;;3.15;2.95;;;17.90;47.60;;;;;;5012354;28;20691;-58
2023/06/02 10:16:52;;;;;;;3.50;3.30;;;17.90;47.60;;;;;;5010183;28;20201;-57
2023/06/02 10:19:39;;;;;;;3.30;3.10;;;17.90;47.60;;;;;;5011174;28;20193;-58
2023/06/02 10:22:50;;;;;;;4.03;3.63;;;17.80;47.50;;;;;;4993730;28;20217;-60
2023/06/02 10:25:30;;;;;;;12.15;8.57;;;17.80;47.60;;;;;;5021370;28;20192;-59
2023/06/02 10:28:03;;;;;;;13.05;8.77;;;17.80;47.60;;;;;;5030184;28;20207;-58
2023/06/02 10:30:35;;;;;;;10.70;8.15;;;17.90;47.70;;;;;;5030898;28;20192;-58
2023/06/02 10:33:08;;;;;;;11.25;7.22;;;17.90;47.70;;;;;;5030065;28;20680;-57
2023/06/02 10:35:59;;;;;;;9.27;7.25;;;17.90;47.80;;;;;;5027722;28;20192;-56
2023/06/02 10:38:34;;;;;;;14.00;8.18;;;17.90;47.80;;;;;;5016993;28;20276;-58
2023/06/02 10:41:05;;;;;;;12.02;6.78;;;17.90;48.50;;;;;;5022525;28;20282;-57
2023/06/02 10:43:37;;;;;;;10.50;6.80;;;17.90;47.90;;;;;;5023703;28;20712;-56
2023/06/02 10:46:22;;;;;;;11.82;7.60;;;17.90;48.10;;;;;;5021404;28;20203;-56
2023/06/02 10:48:54;;;;;;;13.18;7.32;;;17.80;48.00;;;;;;5020397;28;20235;-57
2023/06/02 10:51:25;;;;;;;8.68;6.80;;;17.90;48.10;;;;;;5019585;28;20580;-57
2023/06/02 10:54:19;;;;;;;8.30;6.38;;;17.90;48.20;;;;;;5020522;28;20653;-57
2023/06/02 10:56:55;;;;;;;12.57;6.75;;;17.90;48.20;;;;;;5020776;28;20197;-57
2023/06/02 10:59:36;;;;;;;12.38;7.22;;;17.80;48.30;;;;;;5019906;28;20184;-58
2023/06/02 11:02:07;;;;;;;9.63;7.05;;;17.80;48.30;;;;;;5022468;28;20209;-57
2023/06/02 11:04:42;;;;;;;10.57;6.60;;;17.80;48.40;;;;;;5020970;28;20205;-56
2023/06/02 11:07:27;;;;;;;9.68;6.38;;;17.80;48.50;;;;;;5021510;28;20193;-56
2023/06/02 11:09:59;;;;;;;8.43;6.57;;;17.80;48.60;;;;;;5029707;28;20227;-57
2023/06/02 11:13:06;;;;;;;8.27;6.40;;;17.80;48.60;;;;;;5021579;28;20224;-56
2023/06/02 11:15:37;;;;;;;9.38;5.95;;;17.80;48.60;;;;;;5022127;28;20201;-57
2023/06/02 11:18:44;;;;;;;7.97;5.85;;;17.80;48.60;;;;;;5022347;28;20200;-56
2023/06/02 11:21:27;;;;;;;8.05;6.15;;;17.70;48.60;;;;;;5018473;28;20284;-56
2023/06/02 11:23:58;;;;;;;6.75;5.70;;;17.70;48.70;;;;;;5012061;28;20199;-53
2023/06/02 11:26:28;;;;;;;9.27;5.95;;;17.70;48.80;;;;;;5011516;28;20200;-56
2023/06/02 11:29:17;;;;;;;8.45;5.78;;;17.70;48.90;;;;;;5011805;28;20193;-55
2023/06/02 11:31:54;;;;;;;9.77;6.00;;;17.70;49.00;;;;;;5007892;28;20300;-56
2023/06/02 11:34:24;;;;;;;6.82;5.63;;;17.70;48.90;;;;;;5009783;28;20223;-57
2023/06/02 11:36:59;;;;;;;6.82;5.70;;;17.70;48.90;;;;;;5011268;28;20200;-57
2023/06/02 11:39:30;;;;;;;9.38;6.00;;;17.70;48.90;;;;;;5011375;28;20189;-58
2023/06/02 11:42:01;;;;;;;7.72;5.35;;;17.70;49.00;;;;;;5011108;28;20221;-57
2023/06/02 11:44:31;;;;;;;7.10;5.28;;;17.60;48.90;;;;;;5008941;28;20185;-56
2023/06/02 11:47:02;;;;;;;6.88;5.38;;;17.60;48.90;;;;;;5010860;28;20205;-58
2023/06/02 11:49:40;;;;;;;9.15;5.47;;;17.60;48.90;;;;;;5009081;28;20210;-56
2023/06/02 11:52:14;;;;;;;6.80;4.70;;;17.60;48.80;;;;;;5008718;28;20232;-55
2023/06/02 11:54:54;;;;;;;5.82;4.93;;;17.60;48.90;;;;;;5010990;28;20197;-57
2023/06/02 11:57:35;;;;;;;6.72;4.78;;;17.60;48.80;;;;;;5010118;28;20196;-57
2023/06/02 12:00:12;;;;;;;6.10;5.00;;;17.50;48.80;;;;;;5010350;28;20768;-55
2023/06/02 12:02:43;;;;;;;7.40;5.00;;;17.50;48.80;;;;;;5009844;28;20566;-58
2023/06/02 12:05:31;;;;;;;7.68;4.78;;;17.50;48.80;;;;;;5008776;28;20192;-56
2023/06/02 12:08:14;;;;;;;6.72;4.93;;;17.50;48.80;;;;;;5010160;28;20293;-55
2023/06/02 12:10:45;;;;;;;5.93;4.63;;;17.50;48.90;;;;;;5010787;28;20263;-56
2023/06/02 12:13:32;;;;;;;5.47;4.55;;;17.50;48.80;;;;;;5010925;28;20914;-58
2023/06/02 12:16:21;;;;;;;6.53;4.75;;;17.50;48.80;;;;;;5010709;28;20192;-57
2023/06/02 12:18:51;;;;;;;7.57;4.70;;;17.50;48.80;;;;;;5008194;28;20519;-57
2023/06/02 12:21:26;;;;;;;7.20;5.15;;;17.50;48.80;;;;;;5010723;28;20205;-57
2023/06/02 12:24:00;;;;;;;6.68;4.45;;;17.50;48.80;;;;;;5027373;28;20274;-57
2023/06/02 12:26:40;;;;;;;6.05;4.45;;;17.40;48.80;;;;;;5030209;28;20188;-54
2023/06/02 12:29:12;;;;;;;6.22;4.28;;;17.40;48.80;;;;;;5008412;28;20189;-57
2023/06/02 12:31:43;;;;;;;5.82;4.07;;;17.40;48.80;;;;;;5010561;28;20217;-57
2023/06/02 12:34:13;;;;;;;5.03;4.18;;;17.40;48.80;;;;;;5010127;28;20653;-59
2023/06/02 12:36:45;;;;;;;4.82;3.90;;;17.40;48.80;;;;;;5010356;28;20672;-57
2023/06/02 12:39:17;;;;;;;6.85;4.10;;;17.40;48.80;;;;;;5010416;28;20209;-56
2023/06/02 12:41:48;;;;;;;5.03;4.45;;;17.30;48.80;;;;;;5007961;28;20209;-57
2023/06/02 12:44:19;;;;;;;4.60;3.75;;;17.40;48.90;;;;;;5010453;28;20189;-58
2023/06/02 12:46:50;;;;;;;4.18;3.60;;;17.30;48.80;;;;;;5009805;28;20205;-58
2023/06/02 12:49:21;;;;;;;5.60;4.05;;;17.30;48.80;;;;;;5014090;28;20197;-58
2023/06/02 12:51:52;;;;;;;4.53;3.70;;;17.30;48.80;;;;;;5013861;28;20213;-58
2023/06/02 12:54:24;;;;;;;4.05;3.65;;;17.30;48.80;;;;;;5014253;28;20197;-57
2023/06/02 12:56:55;;;;;;;4.18;3.80;;;17.30;48.80;;;;;;5014343;28;20193;-58
2023/06/02 12:59:25;;;;;;;5.20;3.85;;;17.30;48.80;;;;;;5014291;28;20204;-57
2023/06/02 13:01:56;;;;;;;3.67;3.30;;;17.30;48.80;;;;;;5014416;28;20221;-58
2023/06/02 13:04:27;;;;;;;4.05;3.60;;;17.30;48.80;;;;;;5014380;28;20208;-57
2023/06/02 13:07:00;;;;;;;4.32;3.45;;;17.30;48.80;;;;;;5014202;28;20208;-58
2023/06/02 13:09:33;;;;;;;3.72;3.42;;;17.30;48.80;;;;;;5014455;28;20706;-58
2023/06/02 13:12:03;;;;;;;3.95;3.45;;;17.30;48.80;;;;;;5014214;28;20878;-58
2023/06/02 13:14:34;;;;;;;4.53;3.58;;;17.20;48.80;;;;;;5014921;28;20197;-58